createdAt,value
2017-04-22T00:09:33.188Z,17
2017-04-22T00:19:32.973Z,14
2017-04-22T00:29:32.956Z,10
2017-04-22T00:39:33.105Z,6
2017-04-22T00:49:32.969Z,6
2017-04-22T00:59:33.695Z,3
2017-04-22T01:09:32.980Z,2
2017-04-22T01:19:32.973Z,2
2017-04-22T01:29:32.965Z,2
2017-04-22T01:39:32.934Z,2
2017-04-22T01:49:32.973Z,3
2017-04-22T01:59:33.052Z,6
2017-04-22T02:09:33.012Z,2
2017-04-22T02:19:33.101Z,5
2017-04-22T02:29:33.007Z,4
2017-04-22T02:39:33.195Z,2
2017-04-22T02:49:33.417Z,4
2017-04-22T02:59:32.949Z,3
2017-04-22T03:09:33.026Z,7
2017-04-22T03:19:33.873Z,8
2017-04-22T03:29:32.935Z,7
2017-04-22T03:39:42.824Z,7
2017-04-22T03:49:32.993Z,11
2017-04-22T03:59:32.919Z,8
2017-04-22T04:09:32.931Z,4
2017-04-22T04:19:33.508Z,12
2017-04-22T04:29:33.018Z,9
2017-04-22T04:39:32.926Z,9
2017-04-22T04:49:33.029Z,8
2017-04-22T04:59:32.915Z,8
2017-04-22T05:09:33.049Z,11
2017-04-22T05:19:33.518Z,14
2017-04-22T05:29:33.072Z,11
2017-04-22T05:39:33.090Z,10
2017-04-22T05:49:33.020Z,4
2017-04-22T05:59:32.930Z,11
2017-04-22T06:09:33.025Z,12
2017-04-22T06:19:32.933Z,14
2017-04-22T06:29:32.899Z,16
2017-04-22T06:39:32.918Z,7
2017-04-22T06:49:33.004Z,10
2017-04-22T06:59:32.953Z,10
2017-04-22T07:09:33.062Z,9
2017-04-22T07:19:32.987Z,8
2017-04-22T07:29:33.057Z,11
2017-04-22T07:39:32.975Z,7
2017-04-22T07:49:33.099Z,6
2017-04-22T07:59:33.020Z,5
2017-04-22T08:09:32.985Z,7
2017-04-22T08:19:33.114Z,2
2017-04-22T08:29:32.948Z,5
2017-04-22T08:39:33.049Z,4
2017-04-22T08:49:33.064Z,5
2017-04-22T08:59:32.934Z,4
2017-04-22T09:09:32.927Z,5
2017-04-22T09:19:33.055Z,3
2017-04-22T09:29:32.962Z,3
2017-04-22T09:39:33.074Z,7
2017-04-22T09:49:33.013Z,5
2017-04-22T09:59:32.942Z,4
2017-04-22T10:09:33.003Z,6
2017-04-22T10:19:32.937Z,7
2017-04-22T10:29:32.963Z,3
2017-04-22T10:39:33.057Z,3
2017-04-22T10:49:32.939Z,4
2017-04-22T10:59:32.952Z,1
2017-04-22T11:09:32.968Z,1
2017-04-22T11:19:33.073Z,5
2017-04-22T11:29:32.959Z,2
2017-04-22T11:39:33.207Z,4
2017-04-22T11:49:33.066Z,3
2017-04-22T11:59:32.975Z,2
2017-04-22T12:09:33.017Z,1
2017-04-22T12:19:32.991Z,1
2017-04-22T12:29:33.178Z,3
2017-04-22T12:39:33.503Z,4
2017-04-22T12:49:33.081Z,4
2017-04-22T12:59:33.071Z,3
2017-04-22T13:09:33.023Z,1
2017-04-22T13:19:33.093Z,4
2017-04-22T13:29:33.028Z,2
2017-04-22T13:39:33.057Z,6
2017-04-22T13:49:32.959Z,4
2017-04-22T13:59:33.042Z,3
2017-04-22T14:09:33.164Z,3
2017-04-22T14:19:33.095Z,5
2017-04-22T14:29:33.217Z,4
2017-04-22T14:39:32.970Z,6
2017-04-22T14:49:33.029Z,3
2017-04-22T14:59:33.298Z,2
2017-04-22T15:09:33.942Z,4
2017-04-22T15:19:34.492Z,5
2017-04-22T15:29:33.405Z,4
2017-04-22T15:39:35.406Z,5
2017-04-22T15:49:34.852Z,6
2017-04-22T15:59:34.556Z,4
2017-04-22T16:09:33.887Z,5
2017-04-22T16:19:33.898Z,5
2017-04-22T16:29:34.536Z,4
2017-04-22T16:39:34.362Z,9
2017-04-22T16:49:34.279Z,5
2017-04-22T16:59:33.871Z,7
2017-04-22T17:09:33.815Z,7
2017-04-22T17:19:33.734Z,4
2017-04-22T17:29:36.764Z,3
2017-04-22T17:39:34.838Z,5
2017-04-22T17:49:34.758Z,4
2017-04-22T17:59:36.509Z,3
2017-04-22T18:09:35.937Z,3
2017-04-22T18:19:35.791Z,3
2017-04-22T18:29:35.192Z,1
2017-04-22T18:39:37.480Z,4
2017-04-22T18:49:38.438Z,4
2017-04-22T18:59:38.851Z,6
2017-04-22T19:09:39.867Z,5
2017-04-22T19:19:36.022Z,5
2017-04-22T19:29:35.776Z,4
2017-04-22T19:39:44.331Z,4
2017-04-22T19:49:37.235Z,6
2017-04-22T19:59:37.080Z,10
2017-04-22T20:11:37.234Z,6
2017-04-22T20:19:36.803Z,3
2017-04-22T20:29:40.739Z,5
2017-04-22T20:39:39.417Z,5
2017-04-22T20:49:41.516Z,4
2017-04-22T20:59:36.832Z,6
2017-04-22T21:09:33.005Z,5
2017-04-22T21:19:32.919Z,8
2017-04-22T21:29:33.255Z,4
2017-04-22T21:39:32.990Z,7
2017-04-22T21:49:32.951Z,11
2017-04-22T21:59:32.932Z,10
2017-04-22T22:09:32.940Z,6
2017-04-22T22:19:33.085Z,5
2017-04-22T22:29:32.913Z,7
2017-04-22T22:39:32.928Z,5
2017-04-22T22:49:32.872Z,8
2017-04-22T22:59:32.951Z,5
2017-04-22T23:09:32.928Z,6
2017-04-22T23:19:32.907Z,8
2017-04-22T23:29:32.895Z,9
2017-04-22T23:39:32.899Z,10
2017-04-22T23:49:32.976Z,7
2017-04-22T23:59:32.932Z,7
